createdAt,value
2022-09-24T00:03:19.990Z,97885.72
2022-09-24T00:08:22.716Z,97845.22
2022-09-24T00:13:25.607Z,97804.75
2022-09-24T00:18:29.634Z,97763.38
2022-09-24T00:23:32.299Z,97690.22
2022-09-24T00:28:35.355Z,97677.13
2022-09-24T00:33:39.270Z,97637.41
2022-09-24T00:38:41.856Z,97615.41
2022-09-24T00:43:44.400Z,97580.22
2022-09-24T00:48:48.872Z,97551.16
2022-09-24T00:53:53.490Z,97539.00
2022-09-24T00:58:57.340Z,97513.38
2022-09-24T01:04:02.617Z,97515.94
2022-09-24T01:09:05.622Z,97512.44
2022-09-24T01:14:35.015Z,97516.00
2022-09-24T01:19:53.215Z,97503.75
2022-09-24T01:25:01.378Z,97479.19
2022-09-24T01:30:07.273Z,97466.88
2022-09-24T01:35:13.861Z,97473.94
2022-09-24T01:40:16.996Z,97444.13
2022-09-24T01:45:21.404Z,97376.38
2022-09-24T01:50:24.486Z,97345.50
2022-09-24T01:55:29.243Z,97287.38
2022-09-24T02:00:33.396Z,97272.47
2022-09-24T02:05:41.242Z,97270.81
2022-09-24T02:10:47.258Z,97267.22
2022-09-24T02:15:53.126Z,97251.38
2022-09-24T02:20:56.347Z,97233.72
2022-09-24T02:26:02.369Z,97229.34
2022-09-24T02:31:08.875Z,97217.16
2022-09-24T02:36:12.141Z,97205.84
2022-09-24T02:41:14.852Z,97195.41
2022-09-24T02:46:19.977Z,97176.75
2022-09-24T02:51:22.579Z,97179.34
2022-09-24T02:56:25.119Z,97182.97
2022-09-24T03:01:29.130Z,97193.53
2022-09-24T03:06:31.728Z,97210.31
2022-09-24T03:11:35.630Z,97205.06
2022-09-24T03:16:39.585Z,97212.16
2022-09-24T03:21:42.121Z,97198.06
2022-09-24T03:26:45.235Z,97184.88
2022-09-24T03:31:49.134Z,97195.59
2022-09-24T03:36:51.732Z,97188.41
2022-09-24T03:41:54.261Z,97178.75
2022-09-24T03:46:58.119Z,97159.34
2022-09-24T03:52:00.633Z,97158.41
2022-09-24T03:57:03.165Z,97175.19
2022-09-24T04:02:07.080Z,97151.44
2022-09-24T04:07:09.647Z,97125.06
2022-09-24T04:12:13.089Z,97104.03
2022-09-24T04:17:17.515Z,97048.69
2022-09-24T04:22:20.042Z,97000.38
2022-09-24T04:27:22.570Z,96960.88
2022-09-24T04:32:26.449Z,96904.63
2022-09-24T04:37:28.979Z,96850.09
2022-09-24T04:42:31.519Z,96818.56
2022-09-24T04:47:35.549Z,96789.53
2022-09-24T04:52:38.290Z,96742.06
2022-09-24T04:57:41.232Z,96686.53
2022-09-24T05:02:45.708Z,96652.34
2022-09-24T05:07:48.331Z,96605.56
2022-09-24T05:12:50.852Z,96565.88
2022-09-24T05:17:54.707Z,96544.25
2022-09-24T05:22:57.228Z,96499.25
2022-09-24T05:27:59.821Z,96462.19
2022-09-24T05:33:03.676Z,96421.72
2022-09-24T05:38:06.205Z,96391.78
2022-09-24T05:43:08.819Z,96380.66
2022-09-24T05:48:12.862Z,96334.03
2022-09-24T05:53:15.393Z,96304.63
2022-09-24T05:58:18.108Z,96240.97
2022-09-24T06:03:22.086Z,96191.22
2022-09-24T06:08:25.958Z,96164.16
2022-09-24T06:13:28.709Z,96139.78
2022-09-24T06:18:34.929Z,96085.22
2022-09-24T06:23:37.883Z,96045.56
2022-09-24T06:28:41.979Z,96002.44
2022-09-24T06:33:45.860Z,95967.22
2022-09-24T06:38:51.841Z,95919.56
2022-09-24T06:43:54.814Z,95876.50
2022-09-24T06:48:59.001Z,95837.72
2022-09-24T06:54:01.540Z,95771.44
2022-09-24T06:59:04.055Z,95711.56
2022-09-24T07:04:07.915Z,95629.53
2022-09-24T07:09:10.550Z,95550.25
2022-09-24T07:14:13.162Z,95501.03
2022-09-24T07:19:17.011Z,95406.75
2022-09-24T07:24:19.541Z,95304.59
2022-09-24T07:29:22.183Z,95212.63
2022-09-24T07:34:26.160Z,95125.34
2022-09-24T07:39:28.774Z,95038.94
2022-09-24T07:44:31.531Z,94934.34
2022-09-24T07:49:36.695Z,94885.22
2022-09-24T07:54:39.355Z,94839.97
2022-09-24T07:59:44.687Z,94804.22
2022-09-24T08:04:50.599Z,94784.09
2022-09-24T08:09:53.468Z,94762.88
2022-09-24T08:14:56.025Z,94769.03
2022-09-24T08:20:00.115Z,94741.72
2022-09-24T08:25:04.265Z,94754.41
2022-09-24T08:30:08.019Z,94737.81
2022-09-24T08:35:12.086Z,94765.34
2022-09-24T08:40:18.654Z,94781.72
2022-09-24T08:45:39.231Z,94757.06
2022-09-24T08:50:49.392Z,94786.34
2022-09-24T08:55:54.139Z,94776.41
2022-09-24T09:01:07.124Z,94777.84
2022-09-24T09:06:22.891Z,94797.88
2022-09-24T09:11:30.537Z,94822.25
2022-09-24T09:16:37.771Z,94812.22
2022-09-24T09:21:43.469Z,94819.78
2022-09-24T09:26:49.676Z,94816.28
2022-09-24T09:31:59.656Z,94852.59
2022-09-24T09:37:11.550Z,94873.31
2022-09-24T09:42:26.869Z,94866.28
2022-09-24T09:47:39.823Z,94867.59
2022-09-24T09:52:43.710Z,94860.00
2022-09-24T09:57:46.664Z,94901.94
2022-09-24T10:02:53.645Z,94893.09
2022-09-24T10:07:59.010Z,94895.91
2022-09-24T10:13:09.778Z,94910.66
2022-09-24T10:18:14.826Z,94934.72
2022-09-24T10:23:22.453Z,94928.69
2022-09-24T10:28:42.430Z,94997.56
2022-09-24T10:33:46.890Z,94980.44
2022-09-24T10:39:02.044Z,95079.19
2022-09-24T10:44:07.023Z,95085.88
2022-09-24T10:49:17.392Z,95150.63
2022-09-24T10:54:36.782Z,95197.03
2022-09-24T10:59:47.738Z,95242.53
2022-09-24T11:04:51.837Z,95314.09
2022-09-24T11:09:59.900Z,95408.41
2022-09-24T11:15:15.240Z,95482.06
2022-09-24T11:20:31.012Z,95589.78
2022-09-24T11:25:41.292Z,95638.31
2022-09-24T11:30:50.707Z,95702.66
2022-09-24T11:36:06.397Z,95780.00
2022-09-24T11:41:21.254Z,95869.91
2022-09-24T11:46:37.669Z,95894.34
2022-09-24T11:51:49.696Z,95883.00
2022-09-24T11:56:57.453Z,95923.81
2022-09-24T12:02:02.404Z,95981.16
2022-09-24T12:07:13.203Z,96089.53
2022-09-24T12:12:20.037Z,96161.34
2022-09-24T12:17:26.533Z,96230.34
2022-09-24T12:22:28.914Z,96286.41
2022-09-24T12:27:36.144Z,96293.91
2022-09-24T12:32:57.077Z,96310.69
2022-09-24T12:38:04.106Z,96357.03
2022-09-24T12:43:17.003Z,96362.13
2022-09-24T12:48:21.995Z,96378.19
2022-09-24T12:53:27.863Z,96400.16
2022-09-24T12:58:38.317Z,96362.09
2022-09-24T13:03:46.996Z,96365.81
2022-09-24T13:08:50.647Z,96382.91
2022-09-24T13:14:03.126Z,96432.41
2022-09-24T13:19:06.811Z,96459.09
2022-09-24T13:24:12.656Z,96467.53
2022-09-24T13:29:26.919Z,96376.78
2022-09-24T13:34:30.537Z,96166.00
2022-09-24T13:39:38.040Z,96157.53
2022-09-24T13:44:44.063Z,96128.97
2022-09-24T13:49:48.007Z,96100.72
2022-09-24T13:54:53.242Z,96020.97
2022-09-24T14:00:15.442Z,95989.84
2022-09-24T14:05:19.755Z,95981.41
2022-09-24T14:10:22.617Z,95982.63
2022-09-24T14:15:26.841Z,95956.41
2022-09-24T14:20:32.427Z,95962.06
2022-09-24T14:25:36.084Z,95954.19
2022-09-24T14:30:48.980Z,95920.81
2022-09-24T14:35:52.987Z,95864.69
2022-09-24T14:40:59.253Z,95783.00
2022-09-24T14:46:06.920Z,95699.53
2022-09-24T14:51:24.805Z,95627.13
2022-09-24T14:56:29.855Z,95573.72
2022-09-24T15:01:34.503Z,95487.84
2022-09-24T15:06:37.938Z,95446.69
2022-09-24T15:11:43.596Z,95401.56
2022-09-24T15:16:48.189Z,95373.75
2022-09-24T15:21:52.553Z,95340.56
2022-09-24T15:27:01.926Z,95315.09
2022-09-24T15:32:15.629Z,95307.84
2022-09-24T15:37:20.322Z,95275.00
2022-09-24T15:42:24.882Z,95271.03
2022-09-24T15:47:28.767Z,95237.44
2022-09-24T15:52:33.045Z,95248.22
2022-09-24T15:57:35.603Z,95251.34
2022-09-24T16:02:39.508Z,95248.06
2022-09-24T16:07:42.289Z,95208.50
2022-09-24T16:12:45.093Z,95171.91
2022-09-24T16:17:50.755Z,95183.22
2022-09-24T16:22:53.440Z,95171.09
2022-09-24T16:27:56.975Z,95172.97
2022-09-24T16:33:00.829Z,95185.81
2022-09-24T16:38:03.363Z,95161.78
2022-09-24T16:43:06.098Z,95164.81
2022-09-24T16:48:12.055Z,95147.22
2022-09-24T16:53:15.234Z,95126.03
2022-09-24T16:58:17.761Z,95100.47
2022-09-24T17:03:21.679Z,95083.13
2022-09-24T17:08:44.283Z,95074.97
2022-09-24T17:13:47.779Z,95052.94
2022-09-24T17:18:54.292Z,95033.75
2022-09-24T17:23:56.683Z,95004.81
2022-09-24T17:28:59.239Z,94981.63
2022-09-24T17:34:04.866Z,94955.63
2022-09-24T17:39:07.439Z,94946.28
2022-09-24T17:44:12.300Z,94943.22
2022-09-24T17:49:16.465Z,94928.28
2022-09-24T17:54:21.370Z,94901.94
2022-09-24T17:59:26.652Z,94880.25
2022-09-24T18:04:31.528Z,94844.25
2022-09-24T18:09:34.064Z,94824.34
2022-09-24T18:14:37.984Z,94796.66
2022-09-24T18:19:41.830Z,94796.00
2022-09-24T18:24:44.421Z,94774.81
2022-09-24T18:29:46.942Z,94718.53
2022-09-24T18:34:50.822Z,94653.13
2022-09-24T18:39:53.418Z,94614.41
2022-09-24T18:44:56.147Z,94577.59
2022-09-24T18:50:00.045Z,94526.75
2022-09-24T18:55:02.592Z,94450.81
2022-09-24T19:00:26.099Z,94405.53
2022-09-24T19:05:30.035Z,94336.88
2022-09-24T19:10:33.589Z,95305.78
2022-09-24T19:15:36.690Z,95303.28
2022-09-24T19:20:41.842Z,95259.34
2022-09-24T19:25:44.911Z,95224.38
2022-09-24T19:30:49.247Z,95169.50
2022-09-24T19:35:58.021Z,95133.53
2022-09-24T19:41:01.597Z,95119.34
2022-09-24T19:46:05.624Z,95109.03
2022-09-24T19:51:11.734Z,95103.13
2022-09-24T19:56:16.202Z,95097.25
2022-09-24T20:01:19.218Z,95081.53
2022-09-24T20:06:24.692Z,95088.81
2022-09-24T20:11:27.590Z,95152.72
2022-09-24T20:16:33.075Z,95357.84
2022-09-24T20:21:38.339Z,95595.94
2022-09-24T20:26:58.419Z,95629.78
2022-09-24T20:32:01.276Z,95613.59
2022-09-24T20:37:06.167Z,95602.03
2022-09-24T20:42:08.708Z,95612.88
2022-09-24T20:47:11.232Z,95591.44
2022-09-24T20:52:15.425Z,95607.47
2022-09-24T20:57:18.039Z,95627.28
2022-09-24T21:02:21.010Z,95643.06
2022-09-24T21:07:24.882Z,95637.31
2022-09-24T21:12:27.409Z,95699.69
2022-09-24T21:17:30.056Z,95739.34
2022-09-24T21:22:34.555Z,95812.28
2022-09-24T21:27:37.823Z,95857.25
2022-09-24T21:32:41.260Z,95871.16
2022-09-24T21:37:45.128Z,95886.03
2022-09-24T21:42:48.058Z,95938.41
2022-09-24T21:47:51.579Z,95969.53
2022-09-24T21:52:55.432Z,95981.00
2022-09-24T21:57:57.946Z,96002.53
2022-09-24T22:03:00.556Z,96013.00
2022-09-24T22:08:11.726Z,96029.41
2022-09-24T22:13:15.038Z,96025.47
2022-09-24T22:18:17.582Z,95998.28
2022-09-24T22:23:21.810Z,95972.66
2022-09-24T22:28:24.999Z,95997.44
2022-09-24T22:33:47.865Z,96129.50
2022-09-24T22:38:53.885Z,96204.66
2022-09-24T22:43:57.146Z,96251.69
2022-09-24T22:48:59.872Z,96333.16
2022-09-24T22:54:03.837Z,96395.84
2022-09-24T22:59:06.511Z,96456.31
2022-09-24T23:04:10.426Z,96511.13
2022-09-24T23:09:14.413Z,96485.28
2022-09-24T23:14:17.519Z,96586.56
2022-09-24T23:19:20.895Z,96590.69
2022-09-24T23:24:24.751Z,96602.31
2022-09-24T23:29:27.347Z,96620.94
2022-09-24T23:34:30.051Z,96710.41
2022-09-24T23:39:34.019Z,96837.03
2022-09-24T23:44:36.552Z,96886.25
2022-09-24T23:49:39.297Z,96929.47
2022-09-24T23:54:43.142Z,97013.34
2022-09-24T23:59:45.674Z,97126.06
